Time;durP1;ratioP1;P1;durP2;ratioP2;P2;SDS_P1;SDS_P2;PMS_P1;PMS_P2;Temp;Humidity;BMP_temperature;BMP_pressure;BME280_temperature;BME280_humidity;BME280_pressure;Samples;Min_cycle;Max_cycle;Signal;HPM_P1;HPM_P2
2021/06/11 00:02:00;;;;;;;13.35;8.98;;;487.10;2380.80;;;;;;4861045;29;20029;-78
2021/06/11 00:04:26;;;;;;;8.73;7.82;;;487.10;2380.80;;;;;;4859537;29;20033;-78
2021/06/11 00:06:51;;;;;;;9.40;8.30;;;487.10;2380.80;;;;;;4859685;29;20491;-78
2021/06/11 00:09:17;;;;;;;10.70;8.43;;;487.10;2380.80;;;;;;4859871;29;20068;-78
2021/06/11 00:11:49;;;;;;;14.98;12.02;;;487.20;2380.80;;;;;;4845398;29;20030;-78
2021/06/11 00:14:15;;;;;;;20.70;17.50;;;487.10;2380.80;;;;;;4852739;29;20128;-78
2021/06/11 00:16:40;;;;;;;17.02;15.18;;;487.10;2380.80;;;;;;4860623;29;20030;-78
2021/06/11 00:19:06;;;;;;;16.38;14.00;;;487.10;2380.80;;;;;;4858364;29;20543;-78
2021/06/11 00:21:32;;;;;;;17.30;14.02;;;487.20;2380.80;;;;;;4843911;29;20060;-78
2021/06/11 00:23:58;;;;;;;15.57;13.88;;;487.00;2380.80;;;;;;4860453;29;20061;-78
2021/06/11 00:26:23;;;;;;;18.98;11.95;;;486.90;2380.80;;;;;;4843043;29;20046;-78
2021/06/11 00:28:49;;;;;;;15.60;11.88;;;486.90;2380.80;;;;;;4852178;29;20057;-78
2021/06/11 00:31:15;;;;;;;14.55;11.20;;;486.80;2380.80;;;;;;4859370;29;20044;-78
2021/06/11 00:33:41;;;;;;;10.93;9.77;;;486.80;2380.80;;;;;;4860412;29;20030;-78
2021/06/11 00:36:07;;;;;;;13.38;10.90;;;486.90;2380.80;;;;;;4859279;29;20108;-78
2021/06/11 00:38:34;;;;;;;22.70;20.23;;;487.10;2380.80;;;;;;4836533;29;20403;-78
2021/06/11 00:41:00;;;;;;;26.02;22.05;;;487.10;2380.80;;;;;;4853492;29;20030;-78
2021/06/11 00:43:26;;;;;;;24.38;19.63;;;487.10;2380.80;;;;;;4854924;29;20029;-78
2021/06/11 00:45:51;;;;;;;19.35;16.42;;;487.10;2380.80;;;;;;4859306;29;20060;-78
2021/06/11 00:48:17;;;;;;;23.83;17.20;;;486.90;2380.80;;;;;;4853365;29;20030;-81
2021/06/11 00:50:43;;;;;;;13.52;10.20;;;486.60;2380.80;;;;;;4846937;29;20038;-81
2021/06/11 00:53:10;;;;;;;15.13;9.80;;;486.40;2380.80;;;;;;4848717;29;20410;-80
2021/06/11 00:55:36;;;;;;;13.45;9.40;;;486.40;2380.80;;;;;;4857321;29;20022;-81
2021/06/11 00:58:03;;;;;;;12.48;9.55;;;486.60;2380.80;;;;;;4877044;29;20017;-80
2021/06/11 01:00:29;;;;;;;10.07;7.50;;;486.60;2380.80;;;;;;4835896;29;20029;-80
2021/06/11 01:02:55;;;;;;;12.90;8.93;;;486.60;2380.80;;;;;;4857407;29;20037;-80
2021/06/11 01:05:21;;;;;;;14.15;7.43;;;486.50;2380.80;;;;;;4862086;29;20025;-80
2021/06/11 01:07:50;;;;;;;10.50;7.07;;;461.70;2380.80;;;;;;4878463;29;20116;-81
2021/06/11 01:10:17;;;;;;;10.20;6.82;;;461.70;2380.80;;;;;;4861777;29;20029;-80
2021/06/11 01:12:45;;;;;;;8.85;6.25;;;461.60;2380.80;;;;;;4878447;29;20025;-80
2021/06/11 01:15:12;;;;;;;13.32;7.03;;;461.70;2380.80;;;;;;4862008;29;20033;-81
2021/06/11 01:17:38;;;;;;;9.32;6.97;;;461.50;2380.80;;;;;;4878324;29;20028;-81
2021/06/11 01:20:10;;;;;;;11.48;7.15;;;461.50;2380.80;;;;;;4848989;29;20032;-82
2021/06/11 01:22:51;;;;;;;8.50;7.50;;;461.50;2380.80;;;;;;4861694;29;20033;-81
2021/06/11 01:25:24;;;;;;;12.85;8.70;;;461.40;2380.80;;;;;;4874421;29;20483;-80
2021/06/11 01:27:50;;;;;;;11.82;8.52;;;461.50;2380.80;;;;;;4862525;29;20032;-81
2021/06/11 01:30:25;;;;;;;10.30;8.35;;;461.60;2380.80;;;;;;4855072;29;20476;-80
2021/06/11 01:32:55;;;;;;;9.25;7.97;;;461.70;2380.80;;;;;;4844544;29;20439;-80
2021/06/11 01:35:31;;;;;;;13.18;7.88;;;461.70;2380.80;;;;;;4878223;29;20484;-80
2021/06/11 01:38:02;;;;;;;9.82;7.38;;;461.60;2380.80;;;;;;4851912;29;20465;-80
2021/06/11 01:40:30;;;;;;;13.70;10.05;;;461.40;2380.80;;;;;;4859253;29;20032;-80
2021/06/11 01:42:59;;;;;;;12.05;9.95;;;461.30;2380.80;;;;;;4878031;29;20093;-79
2021/06/11 01:45:25;;;;;;;13.48;10.48;;;461.20;2380.80;;;;;;4861413;29;20519;-79
2021/06/11 01:47:52;;;;;;;15.25;9.73;;;461.20;2380.80;;;;;;4878251;29;20065;-79
2021/06/11 01:50:25;;;;;;;12.15;9.70;;;461.20;2380.80;;;;;;4854727;29;20042;-79
2021/06/11 01:52:55;;;;;;;13.68;10.27;;;461.30;2380.80;;;;;;4859603;29;20040;-80
2021/06/11 01:55:22;;;;;;;13.27;9.18;;;461.20;2380.80;;;;;;4849349;29;20389;-79
2021/06/11 01:57:48;;;;;;;11.13;8.95;;;461.10;2380.80;;;;;;4842443;29;20094;-80
2021/06/11 02:00:17;;;;;;;10.15;9.02;;;461.20;2380.80;;;;;;4866820;29;20514;-80
2021/06/11 02:02:43;;;;;;;13.55;9.15;;;461.20;2380.80;;;;;;4878339;29;20033;-79
2021/06/11 02:05:10;;;;;;;11.65;9.25;;;461.20;2380.80;;;;;;4861447;29;20570;-79
2021/06/11 02:07:37;;;;;;;11.73;8.50;;;461.20;2380.80;;;;;;4860942;29;20028;-80
2021/06/11 02:10:08;;;;;;;11.32;9.00;;;461.20;2380.80;;;;;;4878032;29;20376;-80
2021/06/11 02:12:34;;;;;;;12.18;9.40;;;461.10;2380.80;;;;;;4878093;29;20052;-79
2021/06/11 02:15:02;;;;;;;10.93;9.40;;;461.10;2380.80;;;;;;4877690;29;20044;-79
2021/06/11 02:17:30;;;;;;;10.48;9.00;;;461.10;2380.80;;;;;;4877834;29;20112;-79
2021/06/11 02:19:57;;;;;;;15.18;9.40;;;461.10;2380.80;;;;;;4857276;29;20040;-79
2021/06/11 02:22:23;;;;;;;11.98;9.25;;;461.10;2380.80;;;;;;4840063;29;20039;-79
2021/06/11 02:24:49;;;;;;;11.18;8.95;;;461.10;2380.80;;;;;;4861190;29;20033;-78
2021/06/11 02:27:16;;;;;;;11.90;9.40;;;461.10;2380.80;;;;;;4854129;29;20495;-78
2021/06/11 02:29:42;;;;;;;15.30;9.20;;;461.10;2380.80;;;;;;4845773;29;20053;-78
2021/06/11 02:32:08;;;;;;;12.27;9.15;;;461.10;2380.80;;;;;;4846011;29;20067;-81
2021/06/11 02:34:34;;;;;;;10.93;9.30;;;461.10;2380.80;;;;;;4858551;29;20153;-79
2021/06/11 02:37:00;;;;;;;10.73;8.15;;;461.10;2380.80;;;;;;4842184;29;20041;-79
2021/06/11 02:39:26;;;;;;;9.93;8.60;;;461.10;2380.80;;;;;;4862238;29;20029;-80
2021/06/11 02:41:58;;;;;;;13.18;8.57;;;461.10;2380.80;;;;;;4858338;29;20093;-79
2021/06/11 02:44:26;;;;;;;8.07;6.82;;;461.00;2380.80;;;;;;4858157;29;20402;-79
2021/06/11 02:46:59;;;;;;;13.48;8.30;;;461.10;2380.80;;;;;;4861793;29;20057;-79
2021/06/11 02:49:37;;;;;;;9.90;6.90;;;461.10;2380.80;;;;;;4862164;29;20061;-79
2021/06/11 02:52:06;;;;;;;9.32;7.10;;;461.10;2380.80;;;;;;4845364;29;20026;-79
2021/06/11 02:54:37;;;;;;;7.93;6.85;;;461.20;2380.80;;;;;;4877233;29;20060;-80
2021/06/11 02:57:22;;;;;;;9.07;7.15;;;461.10;2380.80;;;;;;4849759;29;20380;-79
2021/06/11 02:59:52;;;;;;;8.90;7.28;;;461.10;2380.80;;;;;;4853779;29;20028;-79
2021/06/11 03:02:29;;;;;;;7.50;6.68;;;461.10;2380.80;;;;;;4863992;29;20029;-80
2021/06/11 03:04:56;;;;;;;10.82;6.80;;;461.10;2380.80;;;;;;4880271;29;20061;-80
2021/06/11 03:07:30;;;;;;;8.45;5.75;;;461.10;2380.80;;;;;;4862135;29;20041;-80
2021/06/11 03:10:04;;;;;;;8.25;6.13;;;461.20;2380.80;;;;;;4856800;29;20029;-79
2021/06/11 03:12:32;;;;;;;10.00;7.32;;;461.30;2380.80;;;;;;4842837;29;20044;-79
2021/06/11 03:14:58;;;;;;;8.30;6.72;;;461.30;2380.80;;;;;;4863733;29;20070;-80
2021/06/11 03:17:31;;;;;;;8.30;6.95;;;461.40;2380.80;;;;;;4863589;29;20694;-79
2021/06/11 03:20:04;;;;;;;7.85;6.03;;;461.40;2380.80;;;;;;4863000;29;20506;-79
2021/06/11 03:22:42;;;;;;;11.57;7.00;;;461.30;2380.80;;;;;;4861435;29;20414;-79
2021/06/11 03:25:17;;;;;;;8.00;6.05;;;461.30;2380.80;;;;;;4856367;29;20040;-79
2021/06/11 03:27:51;;;;;;;7.13;5.63;;;461.40;2380.80;;;;;;4852410;29;20400;-79
2021/06/11 03:30:18;;;;;;;7.45;6.15;;;461.40;2380.80;;;;;;4844785;29;20049;-79
2021/06/11 03:32:51;;;;;;;8.50;6.75;;;461.40;2380.80;;;;;;4842519;29;20030;-78
2021/06/11 03:35:24;;;;;;;8.02;6.22;;;461.40;2380.80;;;;;;4844464;29;20054;-77
2021/06/11 03:37:53;;;;;;;8.95;6.85;;;461.50;2380.80;;;;;;4842099;29;20029;-77
2021/06/11 03:40:30;;;;;;;11.02;7.18;;;461.50;2380.80;;;;;;4861007;29;20125;-77
2021/06/11 03:42:57;;;;;;;9.57;6.95;;;461.60;2380.80;;;;;;4858426;29;20038;-78
2021/06/11 03:45:24;;;;;;;9.48;7.35;;;461.70;2380.80;;;;;;4841024;29;20515;-78
2021/06/11 03:47:51;;;;;;;9.68;7.95;;;461.70;2380.80;;;;;;4841904;29;20034;-78
2021/06/11 03:50:20;;;;;;;9.65;7.47;;;461.70;2380.80;;;;;;4842938;29;20034;-78
2021/06/11 03:52:48;;;;;;;9.23;7.45;;;461.70;2380.80;;;;;;4841225;29;20038;-78
2021/06/11 03:55:18;;;;;;;10.73;7.75;;;486.40;2380.80;;;;;;4849829;29;20026;-81
2021/06/11 03:57:53;;;;;;;11.95;9.40;;;486.50;2380.80;;;;;;4852686;29;20400;-78
2021/06/11 04:00:21;;;;;;;10.57;8.75;;;486.50;2380.80;;;;;;4852023;29;20037;-82
2021/06/11 04:02:47;;;;;;;14.18;9.50;;;486.50;2380.80;;;;;;4853510;29;20070;-82
2021/06/11 04:05:14;;;;;;;12.57;10.85;;;486.50;2380.80;;;;;;4836517;29;20037;-78
2021/06/11 04:07:53;;;;;;;11.30;10.02;;;486.60;2380.80;;;;;;4855930;29;20040;-77
2021/06/11 04:10:28;;;;;;;11.27;9.68;;;486.60;2380.80;;;;;;4841474;29;20037;-78
2021/06/11 04:12:56;;;;;;;13.25;10.88;;;486.70;2380.80;;;;;;4837296;29;20034;-78
2021/06/11 04:15:26;;;;;;;12.77;10.43;;;486.70;2380.80;;;;;;4841846;29;20408;-77
2021/06/11 04:17:59;;;;;;;14.90;10.27;;;486.80;2380.80;;;;;;4833273;29;20026;-77
2021/06/11 04:20:26;;;;;;;13.57;11.15;;;486.80;2380.80;;;;;;4840981;29;20046;-77
2021/06/11 04:22:55;;;;;;;11.88;10.68;;;486.70;2380.80;;;;;;4836976;29;20045;-77
2021/06/11 04:25:26;;;;;;;11.73;10.52;;;486.80;2380.80;;;;;;4832901;29;20058;-77
2021/06/11 04:27:53;;;;;;;11.52;9.32;;;486.90;2380.80;;;;;;4836712;29;20035;-76
2021/06/11 04:30:19;;;;;;;12.52;10.23;;;487.10;2380.80;;;;;;4840119;29;20029;-77
2021/06/11 04:32:45;;;;;;;13.77;11.68;;;487.20;2380.80;;;;;;4839248;29;20042;-77
2021/06/11 04:35:11;;;;;;;14.07;11.60;;;487.30;2380.80;;;;;;4838280;29;20030;-78
2021/06/11 04:37:38;;;;;;;12.75;9.93;;;512.10;2380.80;;;;;;4835601;29;20022;-78
2021/06/11 04:40:06;;;;;;;13.43;10.95;;;512.20;2380.80;;;;;;4835637;29;20040;-78
2021/06/11 04:42:33;;;;;;;12.50;9.85;;;512.30;2380.80;;;;;;4835455;29;20506;-78
2021/06/11 04:44:59;;;;;;;15.38;11.68;;;512.50;2380.80;;;;;;4844095;29;20222;-77
2021/06/11 04:47:27;;;;;;;13.70;11.05;;;512.30;2380.80;;;;;;4843708;29;20034;-77
2021/06/11 04:49:54;;;;;;;16.80;10.70;;;512.40;2380.80;;;;;;4860076;29;20036;-77
2021/06/11 04:52:20;;;;;;;15.23;11.77;;;512.60;2380.80;;;;;;4852643;29;20032;-78
2021/06/11 04:54:46;;;;;;;13.80;11.50;;;512.70;2380.80;;;;;;4877777;29;20053;-77
2021/06/11 04:57:12;;;;;;;12.85;11.13;;;512.60;2380.80;;;;;;4841971;29;20368;-77
2021/06/11 04:59:37;;;;;;;11.82;10.15;;;537.60;2406.40;;;;;;4875066;29;20057;-78
2021/06/11 05:02:03;;;;;;;14.70;11.77;;;537.80;2406.40;;;;;;4866436;29;20879;-78
2021/06/11 05:04:29;;;;;;;15.50;11.30;;;537.90;2406.40;;;;;;4842796;29;20037;-78
2021/06/11 05:06:55;;;;;;;13.48;10.93;;;538.10;2406.40;;;;;;4858517;29;20065;-77
2021/06/11 05:09:21;;;;;;;13.23;10.45;;;538.20;2406.40;;;;;;4859775;29;20029;-78
2021/06/11 05:11:48;;;;;;;12.43;10.35;;;538.30;2406.40;;;;;;4847255;29;20491;-77
2021/06/11 05:14:14;;;;;;;15.63;10.52;;;538.30;2406.40;;;;;;4859757;29;20112;-77
2021/06/11 05:16:40;;;;;;;13.48;10.45;;;563.20;2432.00;;;;;;4847501;29;20041;-77
2021/06/11 05:19:05;;;;;;;11.95;10.68;;;563.30;2432.00;;;;;;4859943;29;20033;-77
2021/06/11 05:21:32;;;;;;;13.45;11.02;;;563.30;2432.00;;;;;;4848912;29;20539;-77
2021/06/11 05:23:58;;;;;;;16.40;10.00;;;563.40;2432.00;;;;;;4857675;29;20036;-77
2021/06/11 05:26:24;;;;;;;13.13;10.15;;;563.60;2432.00;;;;;;4857554;29;20109;-77
2021/06/11 05:28:50;;;;;;;17.77;11.40;;;564.10;2432.00;;;;;;4859635;29;20025;-77
2021/06/11 05:31:15;;;;;;;13.93;11.35;;;564.00;2432.00;;;;;;4859608;29;20029;-77
2021/06/11 05:33:41;;;;;;;13.73;11.65;;;564.00;2432.00;;;;;;4857637;29;20074;-78
2021/06/11 05:36:07;;;;;;;13.93;11.60;;;564.00;2432.00;;;;;;4850933;29;20476;-78
2021/06/11 05:38:33;;;;;;;16.88;11.45;;;588.80;2432.00;;;;;;4859112;29;20038;-77
2021/06/11 05:41:01;;;;;;;14.10;11.32;;;588.90;2432.00;;;;;;4856889;29;20046;-78
2021/06/11 05:43:27;;;;;;;12.50;11.18;;;588.90;2432.00;;;;;;4842414;29;20128;-77
2021/06/11 05:45:53;;;;;;;16.15;12.07;;;589.10;2432.00;;;;;;4857286;29;20156;-77
2021/06/11 05:48:19;;;;;;;12.30;10.85;;;589.30;2432.00;;;;;;4857187;29;20045;-77
2021/06/11 05:50:45;;;;;;;14.27;11.38;;;589.30;2432.00;;;;;;4842877;29;20034;-76
2021/06/11 05:53:10;;;;;;;12.98;11.02;;;589.30;2432.00;;;;;;4859057;29;20093;-74
2021/06/11 05:55:36;;;;;;;18.38;12.93;;;589.60;2432.00;;;;;;4856995;29;20017;-74
2021/06/11 05:58:02;;;;;;;14.15;11.63;;;614.40;2432.00;;;;;;4843965;29;20517;-74
2021/06/11 06:00:28;;;;;;;13.13;11.82;;;614.70;2432.00;;;;;;4854581;29;20105;-74
2021/06/11 06:02:54;;;;;;;13.57;10.55;;;614.80;2432.00;;;;;;4858754;29;20038;-75
2021/06/11 06:05:20;;;;;;;15.95;13.20;;;614.80;2432.00;;;;;;4858856;29;20395;-74
2021/06/11 06:07:46;;;;;;;14.77;11.93;;;614.70;2432.00;;;;;;4858972;29;20033;-75
2021/06/11 06:10:12;;;;;;;16.58;10.98;;;614.90;2432.00;;;;;;4856088;29;20037;-75
2021/06/11 06:12:38;;;;;;;11.77;10.20;;;615.20;2432.00;;;;;;4862045;29;20409;-75
2021/06/11 06:15:05;;;;;;;10.25;8.80;;;615.20;2406.40;;;;;;4859812;29;20034;-74
2021/06/11 06:17:34;;;;;;;12.95;10.15;;;615.20;2355.20;;;;;;4845730;29;20037;-74
2021/06/11 06:20:11;;;;;;;23.23;10.63;;;615.00;2380.80;;;;;;4846048;29;20482;-75
2021/06/11 06:22:37;;;;;;;22.38;11.43;;;615.30;2380.80;;;;;;4860893;29;20221;-74
2021/06/11 06:25:04;;;;;;;11.13;9.63;;;615.30;2355.20;;;;;;4842574;29;20155;-75
2021/06/11 06:27:31;;;;;;;14.27;9.65;;;615.30;2329.60;;;;;;4850575;29;20056;-74
2021/06/11 06:29:56;;;;;;;10.65;9.38;;;640.00;2355.20;;;;;;4857814;29;20067;-74
2021/06/11 06:32:22;;;;;;;10.45;8.45;;;640.20;2329.60;;;;;;4859895;29;20053;-74
2021/06/11 06:34:48;;;;;;;15.10;8.82;;;640.40;2329.60;;;;;;4862088;29;20032;-74
2021/06/11 06:37:14;;;;;;;11.18;9.02;;;640.40;2304.00;;;;;;4843313;29;20025;-74
2021/06/11 06:39:41;;;;;;;13.45;8.75;;;640.60;2278.40;;;;;;4843543;29;20033;-74
2021/06/11 06:42:07;;;;;;;13.02;9.90;;;665.60;2252.80;;;;;;4845657;29;20392;-74
2021/06/11 06:44:33;;;;;;;16.75;9.43;;;665.80;2278.40;;;;;;4852289;29;20526;-75
2021/06/11 06:47:00;;;;;;;11.15;9.30;;;665.90;2252.80;;;;;;4844281;29;20064;-77
2021/06/11 06:49:26;;;;;;;12.68;9.45;;;666.10;2227.20;;;;;;4847500;29;20534;-77
2021/06/11 06:51:51;;;;;;;12.48;9.00;;;666.30;2227.20;;;;;;4845879;29;20028;-74
2021/06/11 06:54:17;;;;;;;11.40;8.27;;;691.20;2227.20;;;;;;4841389;29;20120;-75
2021/06/11 06:56:43;;;;;;;15.48;9.48;;;691.50;2150.40;;;;;;4860556;29;20058;-74
2021/06/11 06:59:09;;;;;;;10.43;8.27;;;691.50;2124.80;;;;;;4844663;29;20426;-74
2021/06/11 07:01:34;;;;;;;12.48;8.63;;;691.50;2124.80;;;;;;4835398;29;20065;-77
2021/06/11 07:04:01;;;;;;;10.10;8.40;;;691.70;2124.80;;;;;;4843604;29;20045;-77
2021/06/11 07:06:28;;;;;;;8.63;7.40;;;691.70;2073.60;;;;;;4836037;29;20181;-76
2021/06/11 07:08:54;;;;;;;11.43;8.48;;;691.90;2073.60;;;;;;4860006;29;20045;-76
2021/06/11 07:11:20;;;;;;;7.90;7.13;;;716.80;2099.20;;;;;;4838553;29;20037;-76
2021/06/11 07:13:47;;;;;;;10.05;7.60;;;716.80;2099.20;;;;;;4860300;29;20026;-77
2021/06/11 07:16:13;;;;;;;12.02;7.32;;;716.80;2048.00;;;;;;4838486;29;20034;-77
2021/06/11 07:18:39;;;;;;;13.90;6.63;;;717.00;2048.00;;;;;;4857001;29;20040;-77
2021/06/11 07:21:06;;;;;;;8.77;7.88;;;717.30;2048.00;;;;;;4845021;29;20076;-77
2021/06/11 07:23:33;;;;;;;10.05;7.47;;;717.50;2022.40;;;;;;4856973;29;20067;-74
2021/06/11 07:26:01;;;;;;;10.27;5.55;;;717.50;1945.60;;;;;;4861477;29;20033;-74
2021/06/11 07:28:26;;;;;;;8.25;5.07;;;717.50;1894.40;;;;;;4852571;29;20022;-74
2021/06/11 07:30:53;;;;;;;7.47;6.10;;;717.60;1894.40;;;;;;4858354;29;20025;-75
2021/06/11 07:33:19;;;;;;;7.35;6.60;;;742.70;1894.40;;;;;;4861403;29;20034;-75
2021/06/11 07:35:45;;;;;;;9.13;6.68;;;717.70;1894.40;;;;;;4859632;29;20034;-75
2021/06/11 07:38:11;;;;;;;8.93;6.13;;;717.70;1843.20;;;;;;4861200;29;20028;-75
2021/06/11 07:40:37;;;;;;;6.03;5.40;;;742.60;1894.40;;;;;;4861469;29;20030;-75
2021/06/11 07:43:03;;;;;;;11.40;7.60;;;743.00;1817.60;;;;;;4844515;29;20072;-74
2021/06/11 07:45:30;;;;;;;13.85;6.18;;;743.10;1843.20;;;;;;4854284;29;20415;-74
2021/06/11 07:47:56;;;;;;;7.30;5.47;;;742.90;1792.00;;;;;;4838073;29;20034;-75
2021/06/11 07:50:22;;;;;;;7.05;6.15;;;743.00;1740.80;;;;;;4830991;29;20041;-74
2021/06/11 07:52:48;;;;;;;7.45;4.93;;;743.30;1715.20;;;;;;4863664;29;20085;-75
2021/06/11 07:55:15;;;;;;;12.38;11.13;;;768.00;1664.00;;;;;;4864692;29;20026;-75
2021/06/11 07:57:41;;;;;;;13.05;11.77;;;768.10;1638.40;;;;;;4844209;29;20108;-75
2021/06/11 08:00:07;;;;;;;8.65;6.55;;;768.30;1638.40;;;;;;4857616;29;20121;-74
2021/06/11 08:02:33;;;;;;;8.45;7.20;;;768.40;1612.80;;;;;;4855043;29;20033;-75
2021/06/11 08:04:59;;;;;;;8.90;6.55;;;768.90;1612.80;;;;;;4847545;29;20044;-75
2021/06/11 08:07:31;;;;;;;5.60;4.10;;;768.90;1510.40;;;;;;4861014;29;20034;-75
2021/06/11 08:09:59;;;;;;;10.63;6.53;;;768.70;1536.00;;;;;;4856635;29;20034;-75
2021/06/11 08:12:25;;;;;;;14.57;5.88;;;793.60;1536.00;;;;;;4841936;29;20491;-75
2021/06/11 08:14:51;;;;;;;11.82;4.85;;;794.00;1536.00;;;;;;4840925;29;20050;-75
2021/06/11 08:17:17;;;;;;;7.85;6.95;;;793.80;1484.80;;;;;;4854944;29;20105;-76
2021/06/11 08:19:43;;;;;;;5.43;4.07;;;794.30;1510.40;;;;;;4843227;29;20117;-75
2021/06/11 08:22:09;;;;;;;7.35;5.00;;;794.30;1408.00;;;;;;4847095;29;20041;-76
2021/06/11 08:24:35;;;;;;;8.15;5.13;;;794.00;1459.20;;;;;;4849100;29;20049;-76
2021/06/11 08:27:00;;;;;;;9.68;6.32;;;793.70;1459.20;;;;;;4858552;29;20029;-76
2021/06/11 08:29:26;;;;;;;9.75;5.15;;;768.70;1433.60;;;;;;4859704;29;20483;-76
2021/06/11 08:31:52;;;;;;;7.72;4.10;;;793.80;1484.80;;;;;;4843360;29;20029;-76
2021/06/11 08:34:18;;;;;;;6.75;4.13;;;794.20;1433.60;;;;;;4844766;29;20033;-76
2021/06/11 08:36:44;;;;;;;5.80;4.47;;;794.50;1433.60;;;;;;4843758;29;20455;-75
2021/06/11 08:39:10;;;;;;;12.43;5.35;;;794.30;1433.60;;;;;;4859105;29;20030;-76
2021/06/11 08:41:36;;;;;;;5.55;4.60;;;794.00;1408.00;;;;;;4857232;29;20029;-76
2021/06/11 08:44:03;;;;;;;6.65;4.00;;;819.20;1356.80;;;;;;4854934;29;20043;-76
2021/06/11 08:46:32;;;;;;;4.78;4.35;;;819.30;1356.80;;;;;;4859339;29;20065;-76
2021/06/11 08:49:01;;;;;;;10.70;4.45;;;819.40;1331.20;;;;;;4859378;29;20029;-76
2021/06/11 08:51:28;;;;;;;9.88;4.53;;;820.10;1305.60;;;;;;4840673;29;20033;-76
2021/06/11 08:53:54;;;;;;;5.78;4.47;;;820.10;1305.60;;;;;;4848744;29;20136;-76
2021/06/11 08:56:20;;;;;;;5.22;4.15;;;819.30;1331.20;;;;;;4836767;29;20062;-76
2021/06/11 08:58:48;;;;;;;4.78;4.22;;;794.40;1331.20;;;;;;4842254;29;20037;-76
2021/06/11 09:01:14;;;;;;;6.28;3.88;;;794.10;1356.80;;;;;;4857568;29;20402;-77
2021/06/11 09:03:53;;;;;;;17.25;7.32;;;793.80;1408.00;;;;;;4859347;29;20037;-77
2021/06/11 09:06:19;;;;;;;7.32;4.38;;;768.70;1433.60;;;;;;4859981;29;20491;-77
2021/06/11 09:08:56;;;;;;;9.57;4.20;;;768.70;1459.20;;;;;;4853638;29;20060;-76
2021/06/11 09:11:24;;;;;;;6.75;4.72;;;793.80;1433.60;;;;;;4859534;29;20395;-76
2021/06/11 09:14:04;;;;;;;6.07;4.03;;;794.00;1433.60;;;;;;4859873;29;20029;-76
2021/06/11 09:16:44;;;;;;;4.97;3.78;;;794.10;1382.40;;;;;;4841743;29;20037;-76
2021/06/11 09:19:18;;;;;;;5.85;4.00;;;819.40;1356.80;;;;;;4842840;29;20120;-76
2021/06/11 09:21:46;;;;;;;5.60;4.47;;;820.00;1305.60;;;;;;4856704;29;20034;-76
2021/06/11 09:27:07;;;;;;;5.07;4.32;;;844.80;1331.20;;;;;;4859071;29;20041;-76
2021/06/11 09:29:39;;;;;;;7.03;3.95;;;845.00;1356.80;;;;;;4859508;29;20579;-76
2021/06/11 09:32:19;;;;;;;6.88;4.57;;;819.50;1331.20;;;;;;4854782;29;20116;-76
2021/06/11 09:35:07;;;;;;;5.40;4.88;;;820.00;1331.20;;;;;;4858500;29;20073;-76
2021/06/11 09:37:39;;;;;;;7.75;5.28;;;844.80;1356.80;;;;;;4838790;29;20460;-76
2021/06/11 09:40:11;;;;;;;7.38;5.13;;;845.50;1305.60;;;;;;4841027;29;20074;-76
2021/06/11 09:42:40;;;;;;;6.00;4.40;;;870.40;1305.60;;;;;;4858025;29;20038;-76
2021/06/11 09:45:13;;;;;;;6.97;4.32;;;870.90;1254.40;;;;;;4842791;29;20058;-77
2021/06/11 09:47:39;;;;;;;6.68;4.60;;;871.10;1254.40;;;;;;4859601;29;20038;-76
2021/06/11 09:50:10;;;;;;;10.88;5.18;;;871.10;1228.80;;;;;;4862840;29;20073;-76
2021/06/11 09:52:56;;;;;;;8.77;4.70;;;845.30;1280.00;;;;;;4847436;29;20384;-76
2021/06/11 09:55:31;;;;;;;5.78;4.65;;;819.60;1305.60;;;;;;4844478;29;20038;-77
2021/06/11 09:58:23;;;;;;;8.52;4.63;;;794.40;1331.20;;;;;;4844511;29;20045;-76
2021/06/11 10:00:54;;;;;;;7.15;4.50;;;819.50;1331.20;;;;;;4844272;29;20108;-76
2021/06/11 10:03:34;;;;;;;6.70;4.85;;;819.60;1280.00;;;;;;4840987;29;20026;-76
2021/06/11 10:06:02;;;;;;;5.05;4.40;;;819.70;1305.60;;;;;;4842253;29;20032;-76
2021/06/11 10:08:28;;;;;;;5.75;4.07;;;819.90;1280.00;;;;;;4850538;29;20057;-76
2021/06/11 10:10:56;;;;;;;6.53;4.97;;;820.10;1254.40;;;;;;4862367;29;20065;-76
2021/06/11 10:13:23;;;;;;;6.30;4.13;;;845.00;1254.40;;;;;;4845837;29;20038;-76
2021/06/11 10:15:54;;;;;;;6.82;4.88;;;845.10;1254.40;;;;;;4858698;29;20024;-76
2021/06/11 10:18:21;;;;;;;5.65;4.38;;;845.50;1254.40;;;;;;4841111;29;20025;-76
2021/06/11 10:20:48;;;;;;;7.68;4.75;;;870.70;1228.80;;;;;;4858296;29;20040;-76
2021/06/11 10:23:19;;;;;;;7.65;4.57;;;870.40;1228.80;;;;;;4846038;29;20030;-76
2021/06/11 10:25:51;;;;;;;6.80;4.32;;;845.50;1228.80;;;;;;4852043;29;20124;-75
2021/06/11 10:28:38;;;;;;;6.65;4.40;;;870.40;1228.80;;;;;;4858124;29;20022;-75
2021/06/11 10:31:12;;;;;;;10.93;4.50;;;871.10;1177.60;;;;;;4858632;29;20034;-75
2021/06/11 10:33:44;;;;;;;7.50;4.68;;;871.30;1126.40;;;;;;4845739;29;20500;-75
2021/06/11 10:38:57;;;;;;;5.95;4.50;;;896.00;1203.20;;;;;;4862029;29;20061;-75
2021/06/11 10:41:24;;;;;;;7.95;5.63;;;871.10;1203.20;;;;;;4859262;29;20034;-75
2021/06/11 10:43:50;;;;;;;7.93;5.25;;;871.10;1203.20;;;;;;4844891;29;20085;-75
2021/06/11 10:46:31;;;;;;;6.80;4.53;;;871.10;1177.60;;;;;;4854439;29;20061;-75
2021/06/11 10:48:56;;;;;;;7.32;4.97;;;871.30;1152.00;;;;;;4859098;29;20509;-76
2021/06/11 10:51:45;;;;;;;8.45;4.68;;;871.10;1177.60;;;;;;4861387;29;20037;-77
2021/06/11 10:54:17;;;;;;;10.18;5.55;;;871.30;1126.40;;;;;;4844006;29;20032;-77
2021/06/11 10:57:02;;;;;;;8.82;5.30;;;896.50;1126.40;;;;;;4858807;29;20032;-76
2021/06/11 10:59:37;;;;;;;7.97;4.10;;;896.10;1100.80;;;;;;4856847;29;20037;-76
2021/06/11 11:02:04;;;;;;;7.13;5.60;;;896.70;1075.20;;;;;;4858659;29;20339;-76
2021/06/11 11:04:36;;;;;;;5.65;4.45;;;921.80;1075.20;;;;;;4844843;29;20076;-76
2021/06/11 11:07:20;;;;;;;6.13;4.38;;;896.90;1049.60;;;;;;4840240;29;20542;-76
2021/06/11 11:09:57;;;;;;;6.30;4.50;;;896.80;1075.20;;;;;;4846930;29;20124;-75
2021/06/11 11:12:27;;;;;;;8.25;3.78;;;896.50;1100.80;;;;;;4861902;29;20484;-76
2021/06/11 11:14:54;;;;;;;4.80;3.47;;;845.50;1177.60;;;;;;4855912;29;20368;-76
2021/06/11 11:17:21;;;;;;;8.00;3.80;;;794.20;1228.80;;;;;;4840385;29;20041;-75
2021/06/11 11:19:56;;;;;;;5.45;3.22;;;768.40;1228.80;;;;;;4855714;29;20029;-76
2021/06/11 11:22:22;;;;;;;;;;;768.10;1228.80;;;;;;4861138;29;20120;-76
2021/06/11 11:24:48;;;;;;;5.57;3.80;;;768.90;1177.60;;;;;;4860855;29;19994;-76
2021/06/11 11:27:13;;;;;;;4.35;2.80;;;793.70;1228.80;;;;;;4845271;29;20041;-75
2021/06/11 11:29:39;;;;;;;7.28;3.05;;;768.50;1126.40;;;;;;4860419;29;20060;-75
2021/06/11 11:32:05;;;;;;;8.23;3.35;;;768.00;1177.60;;;;;;4859720;29;20029;-75
2021/06/11 11:34:31;;;;;;;4.70;3.05;;;768.50;1177.60;;;;;;4851653;29;20033;-75
2021/06/11 11:36:56;;;;;;;3.65;2.40;;;768.20;1126.40;;;;;;4858016;29;20022;-75
2021/06/11 11:39:22;;;;;;;7.15;3.55;;;768.00;1203.20;;;;;;4842127;29;20040;-75
2021/06/11 11:41:50;;;;;;;6.28;4.07;;;743.10;1331.20;;;;;;4855223;29;20054;-75
2021/06/11 11:44:16;;;;;;;6.50;4.50;;;742.80;1408.00;;;;;;4839624;29;20042;-75
2021/06/11 11:46:41;;;;;;;5.47;4.45;;;743.00;1408.00;;;;;;4859753;29;20054;-76
2021/06/11 11:49:07;;;;;;;9.43;4.88;;;742.90;1459.20;;;;;;4843280;29;20059;-75
2021/06/11 11:51:33;;;;;;;6.53;4.80;;;742.60;1459.20;;;;;;4854737;29;20026;-75
2021/06/11 11:53:59;;;;;;;7.78;4.35;;;742.80;1484.80;;;;;;4841945;29;20364;-75
2021/06/11 11:56:25;;;;;;;6.97;4.55;;;743.20;1433.60;;;;;;4842950;29;20022;-76
2021/06/11 11:58:50;;;;;;;5.38;4.50;;;768.00;1433.60;;;;;;4859334;29;20025;-76
2021/06/11 12:01:16;;;;;;;5.93;3.67;;;768.50;1408.00;;;;;;4842746;29;20033;-76
2021/06/11 12:03:42;;;;;;;5.00;4.13;;;793.90;1408.00;;;;;;4833208;29;20368;-76
2021/06/11 12:06:07;;;;;;;7.38;4.85;;;819.60;1305.60;;;;;;4860494;29;20482;-76
2021/06/11 12:08:33;;;;;;;6.68;3.70;;;845.50;1331.20;;;;;;4857856;29;20036;-76
2021/06/11 12:10:59;;;;;;;5.25;3.35;;;845.30;1228.80;;;;;;4860206;29;20513;-76
2021/06/11 12:13:26;;;;;;;9.68;3.85;;;845.40;1177.60;;;;;;4843429;29;20030;-76
2021/06/11 12:15:53;;;;;;;9.40;3.95;;;845.70;1152.00;;;;;;4858050;29;20033;-76
2021/06/11 12:18:18;;;;;;;4.03;3.38;;;871.10;1126.40;;;;;;4857199;29;20045;-76
2021/06/11 12:20:44;;;;;;;9.00;3.20;;;870.70;1126.40;;;;;;4841338;29;20033;-76
2021/06/11 12:23:10;;;;;;;7.90;3.22;;;845.60;1126.40;;;;;;4839477;29;20030;-76